Time;durP1;ratioP1;P1;durP2;ratioP2;P2;SDS_P1;SDS_P2;PMS_P1;PMS_P2;Temp;Humidity;BMP_temperature;BMP_pressure;BME280_temperature;BME280_humidity;BME280_pressure;Samples;Min_cycle;Max_cycle;Signal;HPM_P1;HPM_P2
2021/01/16 00:01:18;;;;;;;33.08;17.23;;;;;;;;;;5034452;28;20044;-72
2021/01/16 00:03:43;;;;;;;39.20;18.50;;;;;;;;;;5034201;28;20112;-72
2021/01/16 00:06:08;;;;;;;34.00;19.23;;;;;;;;;;5034308;28;20040;-72
2021/01/16 00:08:34;;;;;;;35.42;18.55;;;;;;;;;;5033622;28;20025;-72
2021/01/16 00:10:59;;;;;;;39.75;18.35;;;;;;;;;;5034020;28;20088;-72
2021/01/16 00:13:26;;;;;;;34.38;18.45;;;;;;;;;;5033917;28;20136;-69
2021/01/16 00:15:51;;;;;;;35.65;17.92;;;;;;;;;;5034268;28;20116;-69
2021/01/16 00:18:17;;;;;;;37.05;19.00;;;;;;;;;;5034174;28;20140;-69
2021/01/16 00:20:44;;;;;;;38.63;17.52;;;;;;;;;;5034286;28;20116;-70
2021/01/16 00:23:10;;;;;;;32.03;17.55;;;;;;;;;;5034046;28;20041;-69
2021/01/16 00:25:35;;;;;;;27.95;17.02;;;;;;;;;;5032773;28;20042;-70
2021/01/16 00:28:01;;;;;;;32.70;16.58;;;;;;;;;;5033948;28;20056;-70
2021/01/16 00:30:27;;;;;;;35.28;17.35;;;;;;;;;;5033754;28;20039;-69
2021/01/16 00:32:53;;;;;;;30.25;17.02;;;;;;;;;;5033851;28;20097;-69
2021/01/16 00:35:19;;;;;;;33.80;17.30;;;;;;;;;;5033940;28;20438;-69
2021/01/16 00:37:48;;;;;;;30.52;16.92;;;;;;;;;;5033840;28;20488;-70
2021/01/16 00:40:15;;;;;;;30.75;16.50;;;;;;;;;;5033795;28;20022;-69
2021/01/16 00:42:41;;;;;;;30.15;16.13;;;;;;;;;;5033389;28;20394;-69
2021/01/16 00:45:07;;;;;;;29.85;16.40;;;;;;;;;;5033601;28;20402;-70
2021/01/16 00:47:36;;;;;;;32.00;16.77;;;;;;;;;;5033488;28;20032;-69
2021/01/16 00:50:03;;;;;;;27.90;15.88;;;;;;;;;;5033641;28;20033;-70
2021/01/16 00:52:28;;;;;;;31.13;16.35;;;;;;;;;;5033561;28;20061;-69
2021/01/16 00:54:53;;;;;;;27.40;15.63;;;;;;;;;;5032894;28;20056;-69
2021/01/16 00:57:18;;;;;;;26.25;16.80;;;;;;;;;;5032783;28;20359;-69
2021/01/16 00:59:44;;;;;;;28.77;16.23;;;;;;;;;;5032806;28;20041;-70
2021/01/16 01:02:09;;;;;;;30.45;16.05;;;;;;;;;;5032653;28;20043;-69
2021/01/16 01:04:34;;;;;;;30.50;15.45;;;;;;;;;;5032616;28;20087;-69
2021/01/16 01:07:00;;;;;;;24.10;15.32;;;;;;;;;;5032422;28;20092;-70
2021/01/16 01:09:26;;;;;;;24.08;14.68;;;;;;;;;;5031051;28;20025;-70
2021/01/16 01:11:51;;;;;;;34.25;15.75;;;;;;;;;;5032291;28;20049;-69
2021/01/16 01:14:17;;;;;;;28.48;14.85;;;;;;;;;;5032410;28;20064;-69
2021/01/16 01:16:42;;;;;;;26.88;13.52;;;;;;;;;;5032221;28;20021;-70
2021/01/16 01:19:07;;;;;;;27.42;13.15;;;;;;;;;;5032122;28;20044;-70
2021/01/16 01:21:33;;;;;;;22.33;13.52;;;;;;;;;;5032167;28;20120;-70
2021/01/16 01:23:58;;;;;;;24.25;12.65;;;;;;;;;;5032214;28;20450;-69
2021/01/16 01:26:23;;;;;;;22.70;13.23;;;;;;;;;;5032904;28;20040;-70
2021/01/16 01:28:48;;;;;;;23.27;12.52;;;;;;;;;;5032467;28;20438;-70
2021/01/16 01:31:14;;;;;;;23.08;13.15;;;;;;;;;;5033005;28;20013;-70
2021/01/16 01:33:39;;;;;;;20.13;12.80;;;;;;;;;;5032515;28;20065;-69
2021/01/16 01:36:04;;;;;;;18.38;11.95;;;;;;;;;;5032863;28;20083;-69
2021/01/16 01:38:30;;;;;;;22.33;13.00;;;;;;;;;;5032746;28;20017;-72
2021/01/16 01:40:58;;;;;;;28.25;12.98;;;;;;;;;;5032593;28;20030;-72
2021/01/16 01:43:24;;;;;;;28.10;13.60;;;;;;;;;;5032764;28;20116;-72
2021/01/16 01:45:49;;;;;;;24.88;13.15;;;;;;;;;;5032588;28;20097;-72
2021/01/16 01:48:14;;;;;;;25.40;12.18;;;;;;;;;;5032709;28;20398;-72
2021/01/16 01:50:40;;;;;;;27.20;13.40;;;;;;;;;;5033000;28;20037;-69
2021/01/16 01:53:05;;;;;;;25.13;12.35;;;;;;;;;;5032527;28;20382;-69
2021/01/16 01:55:32;;;;;;;23.48;13.15;;;;;;;;;;5032784;28;20076;-69
2021/01/16 01:57:59;;;;;;;23.65;13.30;;;;;;;;;;5032496;28;20034;-69
2021/01/16 02:00:24;;;;;;;27.75;13.85;;;;;;;;;;5032692;28;20018;-69
2021/01/16 02:02:50;;;;;;;31.88;14.27;;;;;;;;;;5032448;28;20040;-69
2021/01/16 02:05:16;;;;;;;28.85;15.00;;;;;;;;;;5032575;28;20084;-68
2021/01/16 02:07:41;;;;;;;32.08;15.23;;;;;;;;;;5032491;28;20092;-69
2021/01/16 02:10:07;;;;;;;37.88;16.20;;;;;;;;;;5030350;28;20040;-72
2021/01/16 02:12:32;;;;;;;36.03;15.77;;;;;;;;;;5030742;28;20042;-72
2021/01/16 02:15:09;;;;;;;28.92;15.13;;;;;;;;;;5031764;28;20024;-71
2021/01/16 02:17:37;;;;;;;29.65;16.25;;;;;;;;;;5032240;28;20048;-72
2021/01/16 02:20:10;;;;;;;33.33;16.35;;;;;;;;;;5032151;28;20026;-71
2021/01/16 02:23:08;;;;;;;35.60;17.58;;;;;;;;;;5032191;28;20035;-71
2021/01/16 02:25:42;;;;;;;29.08;16.35;;;;;;;;;;5030802;28;20048;-71
2021/01/16 02:28:09;;;;;;;37.97;17.08;;;;;;;;;;5032221;28;20029;-71
2021/01/16 02:30:35;;;;;;;43.35;17.20;;;;;;;;;;5033666;28;20160;-69
2021/01/16 02:33:02;;;;;;;38.25;17.15;;;;;;;;;;5036004;28;20465;-68
2021/01/16 02:35:28;;;;;;;50.50;20.83;;;;;;;;;;5035987;28;20040;-69
2021/01/16 02:38:08;;;;;;;34.83;17.40;;;;;;;;;;5035965;28;20041;-68
2021/01/16 02:40:42;;;;;;;36.90;17.50;;;;;;;;;;5036053;28;20112;-69
2021/01/16 02:43:26;;;;;;;36.60;17.42;;;;;;;;;;5035940;28;20033;-69
2021/01/16 02:45:58;;;;;;;42.80;19.23;;;;;;;;;;5035902;28;20041;-69
2021/01/16 02:48:24;;;;;;;40.33;17.83;;;;;;;;;;5035904;28;20036;-69
2021/01/16 02:50:54;;;;;;;37.47;19.63;;;;;;;;;;5036101;28;20084;-69
2021/01/16 02:53:20;;;;;;;45.55;20.02;;;;;;;;;;5035834;28;20052;-68
2021/01/16 02:55:45;;;;;;;37.78;18.75;;;;;;;;;;5035888;28;20466;-69
2021/01/16 02:58:10;;;;;;;44.67;21.00;;;;;;;;;;5035634;28;20021;-69
2021/01/16 03:00:36;;;;;;;49.22;21.08;;;;;;;;;;5036035;28;20072;-69
2021/01/16 03:03:01;;;;;;;39.50;18.63;;;;;;;;;;5035493;28;20536;-69
2021/01/16 03:05:26;;;;;;;40.40;19.23;;;;;;;;;;5035648;28;20041;-71
2021/01/16 03:07:52;;;;;;;41.70;20.15;;;;;;;;;;5035497;28;20374;-71
2021/01/16 03:10:18;;;;;;;41.58;19.20;;;;;;;;;;5035181;28;20049;-71
2021/01/16 03:12:43;;;;;;;38.03;19.02;;;;;;;;;;5035524;28;20020;-71
2021/01/16 03:15:16;;;;;;;36.28;18.33;;;;;;;;;;5035327;28;20112;-71
2021/01/16 03:17:43;;;;;;;34.88;17.52;;;;;;;;;;5035371;28;20056;-71
2021/01/16 03:20:09;;;;;;;40.20;18.20;;;;;;;;;;5035270;28;20691;-71
2021/01/16 03:22:34;;;;;;;41.65;18.80;;;;;;;;;;5034923;28;20035;-71
2021/01/16 03:25:00;;;;;;;30.77;15.82;;;;;;;;;;5035135;28;20105;-69
2021/01/16 03:27:26;;;;;;;38.72;16.95;;;;;;;;;;5035167;28;20520;-69
2021/01/16 03:29:51;;;;;;;43.55;18.60;;;;;;;;;;5035386;28;20041;-68
2021/01/16 03:32:17;;;;;;;44.38;19.30;;;;;;;;;;5035080;28;20032;-69
2021/01/16 03:34:43;;;;;;;38.08;19.67;;;;;;;;;;5035125;28;20017;-69
2021/01/16 03:37:09;;;;;;;48.00;18.98;;;;;;;;;;5034900;28;20040;-69
2021/01/16 03:39:34;;;;;;;28.20;16.55;;;;;;;;;;5035081;28;20100;-69
2021/01/16 03:42:00;;;;;;;32.17;17.75;;;;;;;;;;5034339;28;20018;-68
2021/01/16 03:44:25;;;;;;;36.70;17.50;;;;;;;;;;5034899;28;20045;-69
2021/01/16 03:46:50;;;;;;;37.00;16.92;;;;;;;;;;5035090;28;20014;-68
2021/01/16 03:49:16;;;;;;;32.50;16.10;;;;;;;;;;5035118;28;20047;-69
2021/01/16 03:51:41;;;;;;;27.13;15.27;;;;;;;;;;5034794;28;20382;-69
2021/01/16 03:54:08;;;;;;;31.20;16.08;;;;;;;;;;5034624;28;20017;-68
2021/01/16 03:56:33;;;;;;;32.75;16.75;;;;;;;;;;5034815;28;20025;-68
2021/01/16 03:58:58;;;;;;;30.83;15.63;;;;;;;;;;5034485;28;20030;-68
2021/01/16 04:01:24;;;;;;;34.40;15.27;;;;;;;;;;5034629;28;20484;-69
2021/01/16 04:03:49;;;;;;;30.25;14.85;;;;;;;;;;5034569;28;20029;-68
2021/01/16 04:06:17;;;;;;;31.42;14.30;;;;;;;;;;5034763;28;20037;-68
2021/01/16 04:08:43;;;;;;;28.73;14.18;;;;;;;;;;5034412;28;20343;-69
2021/01/16 04:11:08;;;;;;;25.95;12.38;;;;;;;;;;5034392;28;20045;-68
2021/01/16 04:13:34;;;;;;;30.60;14.35;;;;;;;;;;5034318;28;20034;-68
2021/01/16 04:15:59;;;;;;;22.23;12.85;;;;;;;;;;5034047;28;20017;-68
2021/01/16 04:18:24;;;;;;;25.58;13.13;;;;;;;;;;5034254;28;20024;-68
2021/01/16 04:20:50;;;;;;;24.88;12.73;;;;;;;;;;5034245;28;20025;-68
2021/01/16 04:23:15;;;;;;;25.33;12.25;;;;;;;;;;5033995;28;20020;-69
2021/01/16 04:25:40;;;;;;;26.30;12.93;;;;;;;;;;5034526;28;20029;-69
2021/01/16 04:28:05;;;;;;;24.52;11.85;;;;;;;;;;5032618;28;20033;-68
2021/01/16 04:30:31;;;;;;;26.00;11.40;;;;;;;;;;5033843;28;20014;-68
2021/01/16 04:32:56;;;;;;;18.33;9.68;;;;;;;;;;5033833;28;20108;-68
2021/01/16 04:35:21;;;;;;;18.70;9.80;;;;;;;;;;5033624;28;20397;-68
2021/01/16 04:37:47;;;;;;;20.77;11.07;;;;;;;;;;5033880;28;20021;-68
2021/01/16 04:40:13;;;;;;;17.90;10.75;;;;;;;;;;5033816;28;20014;-68
2021/01/16 04:42:41;;;;;;;21.50;11.70;;;;;;;;;;5033666;28;20037;-68
2021/01/16 04:45:07;;;;;;;30.08;11.10;;;;;;;;;;5033621;28;20091;-69
2021/01/16 04:47:32;;;;;;;22.00;11.05;;;;;;;;;;5033631;28;20021;-68
2021/01/16 04:49:58;;;;;;;23.48;10.30;;;;;;;;;;5033617;28;20038;-68
2021/01/16 04:52:25;;;;;;;23.52;10.18;;;;;;;;;;5033446;28;20413;-69
2021/01/16 04:54:51;;;;;;;26.20;11.70;;;;;;;;;;5033295;28;20036;-68
2021/01/16 04:57:16;;;;;;;20.10;11.40;;;;;;;;;;5033368;28;20042;-68
2021/01/16 04:59:41;;;;;;;20.88;9.55;;;;;;;;;;5033229;28;20018;-69
2021/01/16 05:02:09;;;;;;;17.63;10.02;;;;;;;;;;5033381;28;20116;-68
2021/01/16 05:04:37;;;;;;;20.30;10.95;;;;;;;;;;5032945;28;20486;-68
2021/01/16 05:07:03;;;;;;;16.60;9.65;;;;;;;;;;5033242;28;20356;-69
2021/01/16 05:09:29;;;;;;;22.60;9.82;;;;;;;;;;5032416;28;20424;-68
2021/01/16 05:12:15;;;;;;;21.60;10.45;;;;;;;;;;5033234;28;20033;-68
2021/01/16 05:14:48;;;;;;;19.63;10.27;;;;;;;;;;5032703;28;20175;-69
2021/01/16 05:17:15;;;;;;;18.20;11.07;;;;;;;;;;5033133;28;20112;-69
2021/01/16 05:19:41;;;;;;;18.05;9.95;;;;;;;;;;5033111;28;20082;-68
2021/01/16 05:22:06;;;;;;;19.40;10.80;;;;;;;;;;5032976;28;20145;-68
2021/01/16 05:24:31;;;;;;;27.60;11.82;;;;;;;;;;5033188;28;20492;-69
2021/01/16 05:27:01;;;;;;;21.48;10.50;;;;;;;;;;5032944;28;20024;-68
2021/01/16 05:29:26;;;;;;;25.00;10.93;;;;;;;;;;5032946;28;20041;-69
2021/01/16 05:31:52;;;;;;;24.13;12.07;;;;;;;;;;5032938;28;20030;-68
2021/01/16 05:34:18;;;;;;;25.27;12.13;;;;;;;;;;5032791;28;20056;-69
2021/01/16 05:36:47;;;;;;;23.05;11.63;;;;;;;;;;5032602;28;20065;-68
2021/01/16 05:39:13;;;;;;;24.67;11.45;;;;;;;;;;5032782;28;20037;-68
2021/01/16 05:41:38;;;;;;;22.75;12.43;;;;;;;;;;5032856;28;20371;-69
2021/01/16 05:44:05;;;;;;;21.40;12.30;;;;;;;;;;5032590;28;20072;-69
2021/01/16 05:46:30;;;;;;;20.20;11.15;;;;;;;;;;5032816;28;20474;-68
2021/01/16 05:48:56;;;;;;;19.13;10.95;;;;;;;;;;5032661;28;20104;-68
2021/01/16 05:51:21;;;;;;;26.23;12.48;;;;;;;;;;5032533;28;20033;-68
2021/01/16 05:53:47;;;;;;;22.13;12.05;;;;;;;;;;5032625;28;20049;-68
2021/01/16 05:56:14;;;;;;;27.92;12.18;;;;;;;;;;5032662;28;20060;-68
2021/01/16 05:58:42;;;;;;;26.40;12.35;;;;;;;;;;5032566;28;20033;-68
2021/01/16 06:01:08;;;;;;;24.27;13.13;;;;;;;;;;5032661;28;20090;-69
2021/01/16 06:03:34;;;;;;;28.73;13.23;;;;;;;;;;5032378;28;20017;-68
2021/01/16 06:06:00;;;;;;;26.10;12.60;;;;;;;;;;5034331;28;20478;-68
2021/01/16 06:08:25;;;;;;;22.83;12.85;;;;;;;;;;5036712;28;20033;-68
2021/01/16 06:10:54;;;;;;;21.98;11.27;;;;;;;;;;5036710;28;20493;-68
2021/01/16 06:13:23;;;;;;;24.67;13.23;;;;;;;;;;5036538;28;20038;-69
2021/01/16 06:15:50;;;;;;;30.33;12.57;;;;;;;;;;5036608;28;20025;-69
2021/01/16 06:18:41;;;;;;;26.50;13.63;;;;;;;;;;5036453;28;20024;-69
2021/01/16 06:21:07;;;;;;;27.65;13.43;;;;;;;;;;5027705;28;20509;-68
2021/01/16 06:23:32;;;;;;;26.80;12.63;;;;;;;;;;5036312;28;20053;-69
2021/01/16 06:25:58;;;;;;;32.42;13.93;;;;;;;;;;5036459;28;20489;-68
2021/01/16 06:28:25;;;;;;;24.60;13.32;;;;;;;;;;5036024;28;20090;-68
2021/01/16 06:30:55;;;;;;;28.60;13.30;;;;;;;;;;5036445;28;20471;-69
2021/01/16 06:33:25;;;;;;;24.63;13.25;;;;;;;;;;5036180;28;20044;-69
2021/01/16 06:35:55;;;;;;;31.33;13.25;;;;;;;;;;5035979;28;20474;-69
2021/01/16 06:38:30;;;;;;;33.78;13.43;;;;;;;;;;5036009;28;20030;-69
2021/01/16 06:40:55;;;;;;;21.73;10.90;;;;;;;;;;5036176;28;20021;-68
2021/01/16 06:43:22;;;;;;;24.33;11.15;;;;;;;;;;5035956;28;20030;-69
2021/01/16 06:45:47;;;;;;;20.70;10.70;;;;;;;;;;5035942;28;20038;-68
2021/01/16 06:48:13;;;;;;;23.67;12.48;;;;;;;;;;5036127;28;20113;-69
2021/01/16 06:50:38;;;;;;;22.92;12.23;;;;;;;;;;5035950;28;20378;-68
2021/01/16 06:53:03;;;;;;;29.10;13.30;;;;;;;;;;5035652;28;20018;-69
2021/01/16 06:55:31;;;;;;;31.27;13.07;;;;;;;;;;5035881;28;20531;-68
2021/01/16 06:57:56;;;;;;;29.60;13.75;;;;;;;;;;5035670;28;20064;-68
2021/01/16 07:00:22;;;;;;;27.52;13.35;;;;;;;;;;5035447;28;20045;-69
2021/01/16 07:02:48;;;;;;;30.30;11.85;;;;;;;;;;5035625;28;20087;-68
2021/01/16 07:05:16;;;;;;;25.10;10.88;;;;;;;;;;5035266;28;20038;-68
2021/01/16 07:07:45;;;;;;;22.88;10.57;;;;;;;;;;5035558;28;20014;-68
2021/01/16 07:10:10;;;;;;;24.52;10.38;;;;;;;;;;5035683;28;20041;-69
2021/01/16 07:12:36;;;;;;;22.27;10.40;;;;;;;;;;5035503;28;20072;-69
2021/01/16 07:15:05;;;;;;;18.77;8.55;;;;;;;;;;5035378;28;20071;-68
2021/01/16 07:17:31;;;;;;;19.65;9.02;;;;;;;;;;5035056;28;20448;-68
2021/01/16 07:19:57;;;;;;;17.77;8.15;;;;;;;;;;5035303;28;20068;-68
2021/01/16 07:22:29;;;;;;;19.33;8.77;;;;;;;;;;5035371;28;20366;-69
2021/01/16 07:24:55;;;;;;;18.00;8.73;;;;;;;;;;5034801;28;20494;-69
2021/01/16 07:27:20;;;;;;;11.63;6.80;;;;;;;;;;5035257;28;20120;-69
2021/01/16 07:29:46;;;;;;;17.58;7.82;;;;;;;;;;5035224;28;20029;-69
2021/01/16 07:32:14;;;;;;;13.43;7.65;;;;;;;;;;5035229;28;20029;-68
2021/01/16 07:34:49;;;;;;;13.48;6.32;;;;;;;;;;5035120;28;20072;-69
2021/01/16 07:37:15;;;;;;;14.67;6.60;;;;;;;;;;5035156;28;20029;-69
2021/01/16 07:39:42;;;;;;;15.10;6.20;;;;;;;;;;5035264;28;20477;-69
2021/01/16 07:42:10;;;;;;;14.57;6.80;;;;;;;;;;5034866;28;20029;-69
2021/01/16 07:44:39;;;;;;;14.70;6.55;;;;;;;;;;5034865;28;20037;-69
2021/01/16 07:47:11;;;;;;;13.73;6.82;;;;;;;;;;5034810;28;20033;-69
2021/01/16 07:49:40;;;;;;;11.82;6.03;;;;;;;;;;5034828;28;20037;-69
2021/01/16 07:52:06;;;;;;;14.70;6.50;;;;;;;;;;5034759;28;20037;-68
2021/01/16 07:54:32;;;;;;;19.08;6.97;;;;;;;;;;5034774;28;20018;-69
2021/01/16 07:57:04;;;;;;;11.27;5.22;;;;;;;;;;5034753;28;20026;-69
2021/01/16 07:59:39;;;;;;;10.88;5.07;;;;;;;;;;5034327;28;20397;-68
2021/01/16 08:02:16;;;;;;;12.50;5.53;;;;;;;;;;5034720;28;20037;-69
2021/01/16 08:04:47;;;;;;;10.13;5.28;;;;;;;;;;5034427;28;20037;-69
2021/01/16 08:07:18;;;;;;;13.52;6.35;;;;;;;;;;5034601;28;20084;-69
2021/01/16 08:09:52;;;;;;;16.77;7.05;;;;;;;;;;5034159;28;20490;-69
2021/01/16 08:12:22;;;;;;;13.13;6.10;;;;;;;;;;5034417;28;20025;-69
2021/01/16 08:14:47;;;;;;;14.32;7.85;;;;;;;;;;5034062;28;20512;-69
2021/01/16 08:17:15;;;;;;;27.35;11.63;;;;;;;;;;5034318;28;20053;-69
2021/01/16 08:19:44;;;;;;;18.63;9.02;;;;;;;;;;5034176;28;20116;-69
2021/01/16 08:22:16;;;;;;;12.45;6.80;;;;;;;;;;5034230;28;20033;-68
2021/01/16 08:24:55;;;;;;;13.88;5.38;;;;;;;;;;5034076;28;20045;-69
2021/01/16 08:27:22;;;;;;;10.02;5.30;;;;;;;;;;5033842;28;20056;-69
2021/01/16 08:29:48;;;;;;;11.00;4.53;;;;;;;;;;5033557;28;20040;-69
2021/01/16 08:32:13;;;;;;;12.07;6.35;;;;;;;;;;5033916;28;20029;-71
2021/01/16 08:34:57;;;;;;;12.27;6.15;;;;;;;;;;5033837;28;20018;-71
2021/01/16 08:37:29;;;;;;;11.13;5.45;;;;;;;;;;5033862;28;20029;-71
2021/01/16 08:39:54;;;;;;;12.02;5.78;;;;;;;;;;5033728;28;20041;-71
2021/01/16 08:42:25;;;;;;;24.20;14.52;;;;;;;;;;5033645;28;20508;-71
2021/01/16 08:44:51;;;;;;;15.63;8.43;;;;;;;;;;5033111;28;20052;-69
2021/01/16 08:47:17;;;;;;;13.77;8.23;;;;;;;;;;5032738;28;20482;-69
2021/01/16 08:49:42;;;;;;;5.10;3.33;;;;;;;;;;5033105;28;20108;-69
2021/01/16 08:52:08;;;;;;;6.35;3.80;;;;;;;;;;5033402;28;20034;-69
2021/01/16 08:54:33;;;;;;;8.35;4.22;;;;;;;;;;5033041;28;20037;-69
2021/01/16 08:56:58;;;;;;;9.68;5.15;;;;;;;;;;5032801;28;20108;-69
2021/01/16 08:59:28;;;;;;;10.43;5.00;;;;;;;;;;5030854;28;20055;-69
2021/01/16 09:02:04;;;;;;;6.40;3.38;;;;;;;;;;5032685;28;20029;-69
2021/01/16 09:04:33;;;;;;;8.23;3.85;;;;;;;;;;5032632;28;20091;-69
2021/01/16 09:07:17;;;;;;;5.50;2.88;;;;;;;;;;5033297;28;20147;-69
2021/01/16 09:09:55;;;;;;;13.55;5.22;;;;;;;;;;5032782;28;20057;-69
2021/01/16 09:12:33;;;;;;;17.75;5.55;;;;;;;;;;5033221;28;20060;-69
2021/01/16 09:15:16;;;;;;;12.70;3.95;;;;;;;;;;5032992;28;20033;-69
2021/01/16 09:18:01;;;;;;;12.38;3.83;;;;;;;;;;5032718;28;20489;-69
2021/01/16 09:20:26;;;;;;;10.10;3.58;;;;;;;;;;5033117;28;20041;-69
2021/01/16 09:22:51;;;;;;;9.25;3.42;;;;;;;;;;5031865;28;20048;-69
2021/01/16 09:25:20;;;;;;;11.07;4.03;;;;;;;;;;5032458;28;20042;-69
2021/01/16 09:27:46;;;;;;;17.08;3.90;;;;;;;;;;5032291;28;20043;-69
2021/01/16 09:30:32;;;;;;;22.17;4.40;;;;;;;;;;5032594;28;20033;-68
2021/01/16 09:33:17;;;;;;;12.27;3.53;;;;;;;;;;5032098;28;20133;-69
2021/01/16 09:35:43;;;;;;;8.02;3.00;;;;;;;;;;5032466;28;20470;-69
2021/01/16 09:38:15;;;;;;;7.22;3.30;;;;;;;;;;5032801;28;20128;-69
2021/01/16 09:40:40;;;;;;;9.00;3.00;;;;;;;;;;5031890;28;20025;-69
2021/01/16 09:43:16;;;;;;;14.48;3.50;;;;;;;;;;5032729;28;20026;-68
2021/01/16 09:45:50;;;;;;;13.25;3.63;;;;;;;;;;5032804;28;20084;-69
2021/01/16 09:48:36;;;;;;;12.63;3.40;;;;;;;;;;5032282;28;20486;-69
2021/01/16 09:51:02;;;;;;;17.33;3.60;;;;;;;;;;5032531;28;20034;-69
2021/01/16 09:53:28;;;;;;;8.18;3.15;;;;;;;;;;5032620;28;20041;-69
2021/01/16 09:55:54;;;;;;;10.55;4.00;;;;;;;;;;5032763;28;20024;-69
2021/01/16 09:58:29;;;;;;;10.73;4.43;;;;;;;;;;5032497;28;20017;-69
2021/01/16 10:00:55;;;;;;;12.00;5.20;;;;;;;;;;5032563;28;20036;-69
2021/01/16 10:03:31;;;;;;;9.02;4.43;;;;;;;;;;5032553;28;20097;-69
2021/01/16 10:06:03;;;;;;;9.82;4.57;;;;;;;;;;5032197;28;20501;-69
2021/01/16 10:08:28;;;;;;;19.17;3.67;;;;;;;;;;5032479;28;20061;-69
2021/01/16 10:10:54;;;;;;;8.32;2.70;;;;;;;;;;5032689;28;20421;-70
2021/01/16 10:13:29;;;;;;;5.55;2.10;;;;;;;;;;5032569;28;20017;-69
2021/01/16 10:15:57;;;;;;;7.75;2.67;;;;;;;;;;5032590;28;20104;-69
2021/01/16 10:18:25;;;;;;;7.70;1.55;;;;;;;;;;5032531;28;20033;-69
2021/01/16 10:21:00;;;;;;;11.55;2.67;;;;;;;;;;5032459;28;20026;-69
2021/01/16 10:23:26;;;;;;;19.00;2.38;;;;;;;;;;5032192;28;20584;-69
2021/01/16 10:25:58;;;;;;;13.52;2.53;;;;;;;;;;5032646;28;20041;-69
2021/01/16 10:28:31;;;;;;;7.90;1.50;;;;;;;;;;5032027;28;20407;-69
2021/01/16 10:30:58;;;;;;;1.92;0.90;;;;;;;;;;5032547;28;20036;-69
2021/01/16 10:33:24;;;;;;;3.55;1.10;;;;;;;;;;5031902;28;20489;-69
2021/01/16 10:35:51;;;;;;;2.40;1.15;;;;;;;;;;5032433;28;20032;-69
2021/01/16 10:38:36;;;;;;;2.40;1.00;;;;;;;;;;5032227;28;20464;-69
2021/01/16 10:41:03;;;;;;;2.78;0.80;;;;;;;;;;5020535;28;20131;-71
2021/01/16 10:43:29;;;;;;;1.98;0.70;;;;;;;;;;5022052;28;20441;-70
2021/01/16 10:46:09;;;;;;;4.95;1.10;;;;;;;;;;5031766;28;20045;-71
2021/01/16 10:48:37;;;;;;;3.65;1.13;;;;;;;;;;5031997;28;20036;-71
2021/01/16 10:51:04;;;;;;;6.45;0.95;;;;;;;;;;5032601;28;20025;-71
2021/01/16 10:53:33;;;;;;;3.70;1.15;;;;;;;;;;5035974;28;20041;-71
2021/01/16 10:55:59;;;;;;;4.68;1.65;;;;;;;;;;5035660;28;20469;-71
2021/01/16 10:58:25;;;;;;;4.78;0.68;;;;;;;;;;5035849;28;20060;-69
2021/01/16 11:00:53;;;;;;;2.85;1.00;;;;;;;;;;5035874;28;20079;-69
2021/01/16 11:03:18;;;;;;;2.33;0.77;;;;;;;;;;5035656;28;20061;-68
2021/01/16 11:05:48;;;;;;;4.35;0.80;;;;;;;;;;5035306;28;20065;-69
2021/01/16 11:08:18;;;;;;;4.57;0.65;;;;;;;;;;5035848;28;20013;-68
2021/01/16 11:10:46;;;;;;;5.70;0.90;;;;;;;;;;5035354;28;20042;-69
2021/01/16 11:13:16;;;;;;;5.25;1.15;;;;;;;;;;5035644;28;20048;-69
2021/01/16 11:15:41;;;;;;;3.75;0.63;;;;;;;;;;5035618;28;20025;-69
2021/01/16 11:18:12;;;;;;;5.75;1.17;;;;;;;;;;5035631;28;20537;-69
2021/01/16 11:20:48;;;;;;;3.38;0.60;;;;;;;;;;5035452;28;21478;-69
2021/01/16 11:23:13;;;;;;;8.00;0.90;;;;;;;;;;5035556;28;20108;-69
2021/01/16 11:25:42;;;;;;;6.80;0.63;;;;;;;;;;5035197;28;20557;-69
2021/01/16 11:28:08;;;;;;;4.13;0.88;;;;;;;;;;5035466;28;20025;-70
2021/01/16 11:30:38;;;;;;;3.20;0.65;;;;;;;;;;5035411;28;20440;-70
2021/01/16 11:33:10;;;;;;;5.90;1.58;;;;;;;;;;5035339;28;20052;-69
2021/01/16 11:35:41;;;;;;;2.08;0.52;;;;;;;;;;5035096;28;20030;-69
2021/01/16 11:38:12;;;;;;;3.17;0.73;;;;;;;;;;5035278;28;20082;-70
2021/01/16 11:40:45;;;;;;;3.83;0.70;;;;;;;;;;5034891;28;20087;-69
2021/01/16 11:43:11;;;;;;;1.40;0.77;;;;;;;;;;5035143;28;20029;-69
2021/01/16 11:45:37;;;;;;;3.97;0.70;;;;;;;;;;5034845;28;20505;-70
2021/01/16 11:48:03;;;;;;;10.52;2.55;;;;;;;;;;5034827;28;20482;-69
2021/01/16 11:50:30;;;;;;;9.43;1.17;;;;;;;;;;5034487;28;20469;-69
2021/01/16 11:52:55;;;;;;;9.52;1.20;;;;;;;;;;5034942;28;20021;-69
2021/01/16 11:55:21;;;;;;;6.68;0.90;;;;;;;;;;5034725;28;20029;-70
2021/01/16 11:57:46;;;;;;;9.35;1.02;;;;;;;;;;5034693;28;20409;-69
2021/01/16 12:00:15;;;;;;;5.28;0.70;;;;;;;;;;5034624;28;20025;-70
2021/01/16 12:02:48;;;;;;;4.95;1.00;;;;;;;;;;5033643;28;20100;-70
2021/01/16 12:05:15;;;;;;;6.13;1.00;;;;;;;;;;5034493;28;20083;-69
2021/01/16 12:07:47;;;;;;;7.97;1.70;;;;;;;;;;5034675;28;20013;-69
2021/01/16 12:10:15;;;;;;;7.45;1.27;;;;;;;;;;5034468;28;20069;-69
2021/01/16 12:12:41;;;;;;;5.20;0.75;;;;;;;;;;5034540;28;20036;-69
2021/01/16 12:15:14;;;;;;;8.50;1.35;;;;;;;;;;5034402;28;20017;-70
2021/01/16 12:17:41;;;;;;;6.60;1.20;;;;;;;;;;5034421;28;20109;-70
2021/01/16 12:20:07;;;;;;;4.25;0.80;;;;;;;;;;5034316;28;20461;-70
2021/01/16 12:22:33;;;;;;;8.15;1.38;;;;;;;;;;5034291;28;20033;-70
2021/01/16 12:24:58;;;;;;;7.82;1.08;;;;;;;;;;5033763;28;20040;-70
2021/01/16 12:27:23;;;;;;;6.43;1.33;;;;;;;;;;5034303;28;20033;-69
2021/01/16 12:29:53;;;;;;;10.38;1.42;;;;;;;;;;5034120;28;20470;-70
2021/01/16 12:32:18;;;;;;;8.18;1.45;;;;;;;;;;5034025;28;20033;-70
2021/01/16 12:34:44;;;;;;;5.80;1.10;;;;;;;;;;5033784;28;20489;-70
2021/01/16 12:37:10;;;;;;;19.08;1.52;;;;;;;;;;5033665;28;20470;-68
2021/01/16 12:39:36;;;;;;;6.00;1.45;;;;;;;;;;5033840;28;20139;-70
2021/01/16 12:42:01;;;;;;;8.45;1.45;;;;;;;;;;5033822;28;20044;-70
2021/01/16 12:44:26;;;;;;;4.30;0.82;;;;;;;;;;5033259;28;20040;-70
2021/01/16 12:46:52;;;;;;;10.88;1.10;;;;;;;;;;5033211;28;20112;-70
2021/01/16 12:49:21;;;;;;;8.25;1.05;;;;;;;;;;5033597;28;20040;-71
2021/01/16 12:51:47;;;;;;;4.63;1.00;;;;;;;;;;5033645;28;20020;-70
2021/01/16 12:54:13;;;;;;;7.78;1.30;;;;;;;;;;5032326;28;20439;-70
2021/01/16 12:56:39;;;;;;;6.20;1.30;;;;;;;;;;5033659;28;20121;-70
2021/01/16 12:59:05;;;;;;;11.32;1.42;;;;;;;;;;5033444;28;20023;-70
2021/01/16 13:01:32;;;;;;;8.45;1.52;;;;;;;;;;5033490;28;20116;-70
2021/01/16 13:03:59;;;;;;;6.25;1.10;;;;;;;;;;5063527;28;20029;-70
2021/01/16 13:06:24;;;;;;;7.95;1.15;;;;;;;;;;5031968;28;20021;-69
2021/01/16 13:08:50;;;;;;;7.25;0.95;;;;;;;;;;5024975;28;20025;-73
2021/01/16 13:11:21;;;;;;;8.40;1.70;;;;;;;;;;5030569;28;20084;-72
2021/01/16 13:13:57;;;;;;;7.72;1.20;;;;;;;;;;5030768;28;20096;-72
2021/01/16 13:16:29;;;;;;;6.38;1.10;;;;;;;;;;5030938;28;20469;-72
2021/01/16 13:18:58;;;;;;;9.55;1.55;;;;;;;;;;5030936;28;20067;-72
2021/01/16 13:21:30;;;;;;;6.47;2.65;;;;;;;;;;5031070;28;20060;-72
2021/01/16 13:23:56;;;;;;;5.75;1.38;;;;;;;;;;5030324;28;20413;-70
2021/01/16 13:26:21;;;;;;;6.93;1.50;;;;;;;;;;5030798;28;20104;-73
2021/01/16 13:28:47;;;;;;;5.47;0.95;;;;;;;;;;5031136;28;20071;-72
2021/01/16 13:31:17;;;;;;;9.23;1.63;;;;;;;;;;5030548;28;20397;-72
2021/01/16 13:33:49;;;;;;;4.32;1.17;;;;;;;;;;5030720;28;20370;-72
2021/01/16 13:36:15;;;;;;;8.70;1.20;;;;;;;;;;5030605;28;20167;-72
2021/01/16 13:38:40;;;;;;;6.03;1.10;;;;;;;;;;5030621;28;20500;-72
2021/01/16 13:41:06;;;;;;;7.03;1.83;;;;;;;;;;5030567;28;20373;-72
2021/01/16 13:43:37;;;;;;;8.93;1.42;;;;;;;;;;5018605;28;20033;-70
2021/01/16 13:46:02;;;;;;;9.10;1.35;;;;;;;;;;5026148;28;20513;-72
2021/01/16 13:48:44;;;;;;;7.22;1.13;;;;;;;;;;5029301;28;20056;-71
2021/01/16 13:51:21;;;;;;;8.07;1.20;;;;;;;;;;5030274;28;20079;-72
2021/01/16 13:53:57;;;;;;;8.10;1.50;;;;;;;;;;5028235;28;20432;-71
2021/01/16 13:56:24;;;;;;;6.05;1.15;;;;;;;;;;5029598;28;20033;-72
2021/01/16 13:58:50;;;;;;;8.07;1.67;;;;;;;;;;5029291;28;20037;-72
2021/01/16 14:01:34;;;;;;;4.80;1.17;;;;;;;;;;5028355;28;20028;-72
2021/01/16 14:04:03;;;;;;;12.15;1.65;;;;;;;;;;5028733;28;20381;-72
2021/01/16 14:06:29;;;;;;;8.98;2.13;;;;;;;;;;5028764;28;20041;-72
2021/01/16 14:08:57;;;;;;;11.23;1.60;;;;;;;;;;5031049;28;20348;-72
2021/01/16 14:11:22;;;;;;;8.30;1.55;;;;;;;;;;5031634;28;20561;-72
2021/01/16 14:13:48;;;;;;;7.53;1.20;;;;;;;;;;5029843;28;20117;-72
2021/01/16 14:16:13;;;;;;;11.82;1.75;;;;;;;;;;5030925;28;20026;-72
2021/01/16 14:18:39;;;;;;;11.68;1.80;;;;;;;;;;5031163;28;20033;-72
2021/01/16 14:21:14;;;;;;;7.30;1.20;;;;;;;;;;5030119;28;20384;-72
2021/01/16 14:23:40;;;;;;;;;;;;;;;;;;5030263;28;20036;-72
2021/01/16 14:26:21;;;;;;;5.22;1.50;;;;;;;;;;5031900;28;19913;-72
2021/01/16 14:28:47;;;;;;;8.02;1.08;;;;;;;;;;5035062;28;20739;-72
2021/01/16 14:31:14;;;;;;;9.68;1.38;;;;;;;;;;5035798;28;20024;-72
2021/01/16 14:33:40;;;;;;;8.00;1.08;;;;;;;;;;5034721;28;20040;-71